createdAt,value
2018-05-08T00:00:36.536Z,1019.30
2018-05-08T00:01:36.569Z,1019.26
2018-05-08T00:02:36.599Z,1019.30
2018-05-08T00:03:36.620Z,1019.27
2018-05-08T00:04:36.649Z,1019.26
2018-05-08T00:05:36.678Z,1019.25
2018-05-08T00:06:36.706Z,1019.28
2018-05-08T00:07:36.737Z,1019.26
2018-05-08T00:08:36.764Z,1019.25
2018-05-08T00:09:36.785Z,1019.20
2018-05-08T00:10:36.819Z,1019.20
2018-05-08T00:11:36.844Z,1019.21
2018-05-08T00:12:36.874Z,1019.22
2018-05-08T00:13:36.900Z,1019.21
2018-05-08T00:14:36.929Z,1019.20
2018-05-08T00:15:36.953Z,1019.20
2018-05-08T00:16:36.984Z,1019.20
2018-05-08T00:17:37.013Z,1019.20
2018-05-08T00:18:37.041Z,1019.21
2018-05-08T00:19:37.073Z,1019.24
2018-05-08T00:20:37.101Z,1019.22
2018-05-08T00:21:37.123Z,1019.23
2018-05-08T00:22:37.149Z,1019.24
2018-05-08T00:23:37.183Z,1019.24
2018-05-08T00:24:37.204Z,1019.24
2018-05-08T00:25:37.236Z,1019.23
2018-05-08T00:26:37.263Z,1019.21
2018-05-08T00:27:37.294Z,1019.23
2018-05-08T00:28:37.319Z,1019.21
2018-05-08T00:29:37.343Z,1019.20
2018-05-08T00:30:37.377Z,1019.20
2018-05-08T00:31:37.405Z,1019.20
2018-05-08T00:32:37.427Z,1019.19
2018-05-08T00:33:37.459Z,1019.18
2018-05-08T00:34:37.483Z,1019.16
2018-05-08T00:35:37.516Z,1019.20
2018-05-08T00:36:37.540Z,1019.16
2018-05-08T00:37:37.604Z,1019.17
2018-05-08T00:38:37.599Z,1019.17
2018-05-08T00:39:37.627Z,1019.16
2018-05-08T00:40:37.654Z,1019.20
2018-05-08T00:41:37.678Z,1019.18
2018-05-08T00:42:37.708Z,1019.16
2018-05-08T00:43:37.732Z,1019.18
2018-05-08T00:44:37.766Z,1019.16
2018-05-08T00:45:37.794Z,1019.18
2018-05-08T00:46:37.823Z,1019.13
2018-05-08T00:47:37.854Z,1019.16
2018-05-08T00:48:37.876Z,1019.17
2018-05-08T00:49:37.902Z,1019.15
2018-05-08T00:50:37.932Z,1019.15
2018-05-08T00:51:37.954Z,1019.13
2018-05-08T00:52:37.983Z,1019.13
2018-05-08T00:53:38.014Z,1019.12
2018-05-08T00:54:38.041Z,1019.11
2018-05-08T00:55:38.072Z,1019.09
2018-05-08T00:56:38.096Z,1019.11
2018-05-08T00:57:38.121Z,1019.06
2018-05-08T00:58:38.152Z,1019.05
2018-05-08T00:59:38.178Z,1019.09
2018-05-08T01:00:38.206Z,1019.04
2018-05-08T01:01:38.232Z,1019.00
2018-05-08T01:02:38.265Z,1019.02
2018-05-08T01:03:38.286Z,1019.02
2018-05-08T01:04:38.312Z,1019.02
2018-05-08T01:05:38.345Z,1019.05
2018-05-08T01:06:38.369Z,1019.07
2018-05-08T01:07:38.397Z,1019.03
2018-05-08T01:08:38.426Z,1019.07
2018-05-08T01:09:38.446Z,1019.06
2018-05-08T01:10:38.477Z,1019.07
2018-05-08T01:11:38.583Z,1019.03
2018-05-08T01:12:38.536Z,1019.04
2018-05-08T01:13:38.561Z,1019.00
2018-05-08T01:14:38.592Z,1019.03
2018-05-08T01:15:38.617Z,1019.01
2018-05-08T01:16:38.649Z,1019.03
2018-05-08T01:17:38.667Z,1018.97
2018-05-08T01:18:38.701Z,1018.99
2018-05-08T01:19:38.721Z,1018.97
2018-05-08T01:20:38.757Z,1018.97
2018-05-08T01:21:38.777Z,1018.94
2018-05-08T01:22:38.808Z,1018.94
2018-05-08T01:23:38.831Z,1018.95
2018-05-08T01:24:38.860Z,1018.94
2018-05-08T01:25:38.885Z,1018.92
2018-05-08T01:26:38.911Z,1018.95
2018-05-08T01:27:38.964Z,1018.91
2018-05-08T01:28:38.966Z,1018.96
2018-05-08T01:29:39.000Z,1018.97
2018-05-08T01:30:39.025Z,1018.95
2018-05-08T01:31:39.119Z,1018.91
2018-05-08T01:32:39.080Z,1018.97
2018-05-08T01:33:39.110Z,1018.99
2018-05-08T01:34:39.130Z,1018.96
2018-05-08T01:35:39.158Z,1018.95
2018-05-08T01:36:39.185Z,1018.93
2018-05-08T01:37:39.220Z,1018.91
2018-05-08T01:38:39.241Z,1018.92
2018-05-08T01:39:39.270Z,1018.94
2018-05-08T01:40:39.295Z,1018.94
2018-05-08T01:41:39.330Z,1018.94
2018-05-08T01:42:39.353Z,1018.99
2018-05-08T01:43:39.375Z,1018.98
2018-05-08T01:44:39.408Z,1018.95
2018-05-08T01:45:39.430Z,1018.98
2018-05-08T01:46:39.462Z,1018.98
2018-05-08T01:47:39.486Z,1018.99
2018-05-08T01:48:39.510Z,1018.97
2018-05-08T01:49:39.542Z,1018.96
2018-05-08T01:50:39.571Z,1018.95
2018-05-08T01:51:39.595Z,1018.96
2018-05-08T01:52:39.619Z,1018.94
2018-05-08T01:53:39.645Z,1018.97
2018-05-08T01:54:39.676Z,1018.96
2018-05-08T01:55:39.699Z,1018.92
2018-05-08T01:56:39.733Z,1018.95
2018-05-08T01:57:39.755Z,1018.95
2018-05-08T01:58:39.782Z,1018.94
2018-05-08T01:59:39.809Z,1018.94
2018-05-08T02:00:39.840Z,1018.93
2018-05-08T02:01:39.866Z,1018.93
2018-05-08T02:02:39.898Z,1018.94
2018-05-08T02:03:39.923Z,1018.91
2018-05-08T02:04:39.947Z,1018.91
2018-05-08T02:05:39.979Z,1018.93
2018-05-08T02:06:40.001Z,1018.95
2018-05-08T02:07:40.030Z,1018.90
2018-05-08T02:08:40.058Z,1018.93
2018-05-08T02:09:40.085Z,1018.90
2018-05-08T02:10:40.119Z,1018.89
2018-05-08T02:11:40.139Z,1018.90
2018-05-08T02:12:40.162Z,1018.91
2018-05-08T02:13:40.195Z,1018.89
2018-05-08T02:14:40.222Z,1018.89
2018-05-08T02:15:40.245Z,1018.88
2018-05-08T02:16:40.268Z,1018.91
2018-05-08T02:17:40.302Z,1018.87
2018-05-08T02:18:40.323Z,1018.94
2018-05-08T02:19:40.350Z,1018.92
2018-05-08T02:20:40.377Z,1018.92
2018-05-08T02:21:40.411Z,1018.97
2018-05-08T02:22:40.432Z,1018.91
2018-05-08T02:23:40.459Z,1018.91
2018-05-08T02:24:40.489Z,1018.93
2018-05-08T02:25:40.515Z,1018.91
2018-05-08T02:26:40.541Z,1018.95
2018-05-08T02:27:40.568Z,1018.94
2018-05-08T02:28:40.594Z,1018.95
2018-05-08T02:29:40.707Z,1018.92
2018-05-08T02:30:40.648Z,1018.90
2018-05-08T02:31:40.674Z,1018.89
2018-05-08T02:32:40.705Z,1018.86
2018-05-08T02:33:40.729Z,1018.86
2018-05-08T02:34:40.762Z,1018.84
2018-05-08T02:35:40.787Z,1018.84
2018-05-08T02:36:40.807Z,1018.80
2018-05-08T02:37:40.842Z,1018.80
2018-05-08T02:38:40.871Z,1018.80
2018-05-08T02:39:40.898Z,1018.77
2018-05-08T02:40:40.918Z,1018.80
2018-05-08T02:41:40.945Z,1018.80
2018-05-08T02:42:40.979Z,1018.74
2018-05-08T02:43:41.002Z,1018.74
2018-05-08T02:44:41.032Z,1018.70
2018-05-08T02:45:41.056Z,1018.68
2018-05-08T02:46:41.082Z,1018.67
2018-05-08T02:47:41.117Z,1018.64
2018-05-08T02:48:41.137Z,1018.63
2018-05-08T02:49:41.158Z,1018.64
2018-05-08T02:50:41.189Z,1018.65
2018-05-08T02:51:41.213Z,1018.65
2018-05-08T02:52:41.255Z,1018.68
2018-05-08T02:53:41.267Z,1018.66
2018-05-08T02:54:41.299Z,1018.66
2018-05-08T02:55:41.325Z,1018.65
2018-05-08T02:56:41.364Z,1018.68
2018-05-08T02:57:41.374Z,1018.67
2018-05-08T02:58:41.403Z,1018.69
2018-05-08T02:59:41.431Z,1018.62
2018-05-08T03:00:41.457Z,1018.65
2018-05-08T03:01:41.486Z,1018.64
2018-05-08T03:02:41.514Z,1018.61
2018-05-08T03:03:41.535Z,1018.62
2018-05-08T03:04:41.567Z,1018.63
2018-05-08T03:05:41.600Z,1018.59
2018-05-08T03:06:41.616Z,1018.57
2018-05-08T03:07:41.642Z,1018.59
2018-05-08T03:08:41.676Z,1018.59
2018-05-08T03:09:41.698Z,1018.57
2018-05-08T03:10:41.722Z,1018.59
2018-05-08T03:11:41.748Z,1018.58
2018-05-08T03:12:41.778Z,1018.58
2018-05-08T03:13:41.803Z,1018.57
2018-05-08T03:14:41.833Z,1018.56
2018-05-08T03:15:41.856Z,1018.56
2018-05-08T03:16:41.939Z,1018.57
2018-05-08T03:17:41.915Z,1018.52
2018-05-08T03:18:41.936Z,1018.57
2018-05-08T03:19:41.971Z,1018.58
2018-05-08T03:20:41.998Z,1018.57
2018-05-08T03:21:42.015Z,1018.55
2018-05-08T03:22:42.049Z,1018.53
2018-05-08T03:23:42.074Z,1018.54
2018-05-08T03:24:42.105Z,1018.52
2018-05-08T03:25:42.130Z,1018.54
2018-05-08T03:26:42.150Z,1018.50
2018-05-08T03:27:42.185Z,1018.52
2018-05-08T03:28:42.204Z,1018.53
2018-05-08T03:29:42.229Z,1018.50
2018-05-08T03:30:42.255Z,1018.53
2018-05-08T03:31:42.292Z,1018.50
2018-05-08T03:32:42.340Z,1018.53
2018-05-08T03:33:42.334Z,1018.55
2018-05-08T03:34:42.365Z,1018.53
2018-05-08T03:35:42.394Z,1018.54
2018-05-08T03:36:42.419Z,1018.54
2018-05-08T03:37:42.449Z,1018.53
2018-05-08T03:38:42.479Z,1018.55
2018-05-08T03:39:42.499Z,1018.55
2018-05-08T03:40:42.534Z,1018.60
2018-05-08T03:41:42.551Z,1018.59
2018-05-08T03:42:42.585Z,1018.58
2018-05-08T03:43:42.609Z,1018.59
2018-05-08T03:44:42.630Z,1018.57
2018-05-08T03:45:42.654Z,1018.58
2018-05-08T03:46:42.687Z,1018.57
2018-05-08T03:47:42.709Z,1018.55
2018-05-08T03:48:42.739Z,1018.56
2018-05-08T03:49:42.768Z,1018.60
2018-05-08T03:50:42.790Z,1018.63
2018-05-08T03:51:42.818Z,1018.59
2018-05-08T03:52:42.840Z,1018.62
2018-05-08T03:53:42.878Z,1018.59
2018-05-08T03:54:42.899Z,1018.60
2018-05-08T03:55:42.927Z,1018.65
2018-05-08T03:56:42.953Z,1018.60
2018-05-08T03:57:42.983Z,1018.56
2018-05-08T03:58:43.008Z,1018.55
2018-05-08T03:59:43.028Z,1018.54
2018-05-08T04:00:43.057Z,1018.53
2018-05-08T04:01:43.083Z,1018.52
2018-05-08T04:02:43.106Z,1018.51
2018-05-08T04:03:43.134Z,1018.55
2018-05-08T04:04:43.162Z,1018.55
2018-05-08T04:05:43.193Z,1018.53
2018-05-08T04:06:43.218Z,1018.53
2018-05-08T04:07:43.248Z,1018.55
2018-05-08T04:08:43.275Z,1018.52
2018-05-08T04:09:43.301Z,1018.51
2018-05-08T04:10:43.322Z,1018.51
2018-05-08T04:11:43.353Z,1018.52
2018-05-08T04:12:43.377Z,1018.47
2018-05-08T04:13:43.408Z,1018.49
2018-05-08T04:14:43.436Z,1018.50
2018-05-08T04:15:43.458Z,1018.44
2018-05-08T04:16:43.483Z,1018.48
2018-05-08T04:17:43.505Z,1018.45
2018-05-08T04:18:43.533Z,1018.46
2018-05-08T04:19:43.562Z,1018.45
2018-05-08T04:20:43.584Z,1018.45
2018-05-08T04:21:43.614Z,1018.40
2018-05-08T04:22:43.638Z,1018.39
2018-05-08T04:23:43.669Z,1018.41
2018-05-08T04:24:43.697Z,1018.42
2018-05-08T04:25:43.720Z,1018.40
2018-05-08T04:26:43.748Z,1018.37
2018-05-08T04:27:43.772Z,1018.34
2018-05-08T04:28:43.798Z,1018.36
2018-05-08T04:29:43.826Z,1018.34
2018-05-08T04:30:43.858Z,1018.30
2018-05-08T04:31:43.882Z,1018.32
2018-05-08T04:32:43.906Z,1018.30
2018-05-08T04:33:43.937Z,1018.28
2018-05-08T04:34:43.958Z,1018.33
2018-05-08T04:35:43.993Z,1018.29
2018-05-08T04:36:44.062Z,1018.29
2018-05-08T04:37:44.039Z,1018.32
2018-05-08T04:38:44.062Z,1018.37
2018-05-08T04:39:44.088Z,1018.33
2018-05-08T04:40:44.118Z,1018.32
2018-05-08T04:41:44.154Z,1018.31
2018-05-08T04:42:44.173Z,1018.32
2018-05-08T04:43:44.201Z,1018.27
2018-05-08T04:44:44.223Z,1018.30
2018-05-08T04:45:44.248Z,1018.30
2018-05-08T04:46:44.278Z,1018.32
2018-05-08T04:47:44.305Z,1018.29
2018-05-08T04:48:44.332Z,1018.27
2018-05-08T04:49:44.361Z,1018.29
2018-05-08T04:50:44.382Z,1018.25
2018-05-08T04:51:44.413Z,1018.30
2018-05-08T04:52:44.441Z,1018.25
2018-05-08T04:53:44.461Z,1018.25
2018-05-08T04:54:44.486Z,1018.24
2018-05-08T04:55:44.519Z,1018.21
2018-05-08T04:56:44.546Z,1018.21
2018-05-08T04:57:44.572Z,1018.20
2018-05-08T04:58:44.597Z,1018.16
2018-05-08T04:59:44.622Z,1018.19
2018-05-08T05:00:44.652Z,1018.20
2018-05-08T05:01:44.677Z,1018.19
2018-05-08T05:02:44.748Z,1018.18
2018-05-08T05:03:44.735Z,1018.16
2018-05-08T05:04:44.783Z,1018.15
2018-05-08T05:05:44.795Z,1018.12
2018-05-08T05:06:44.810Z,1018.18
2018-05-08T05:07:44.837Z,1018.13
2018-05-08T05:08:44.865Z,1018.12
2018-05-08T05:09:44.891Z,1018.17
2018-05-08T05:10:44.917Z,1018.18
2018-05-08T05:11:44.942Z,1018.21
2018-05-08T05:12:44.967Z,1018.19
2018-05-08T05:13:44.995Z,1018.17
2018-05-08T05:14:45.021Z,1018.16
2018-05-08T05:15:45.051Z,1018.15
2018-05-08T05:16:45.117Z,1018.17
2018-05-08T05:17:45.103Z,1018.17
2018-05-08T05:18:45.131Z,1018.19
2018-05-08T05:19:45.160Z,1018.17
2018-05-08T05:20:45.184Z,1018.17
2018-05-08T05:21:45.210Z,1018.17
2018-05-08T05:22:45.235Z,1018.15
2018-05-08T05:23:45.263Z,1018.15
2018-05-08T05:24:45.292Z,1018.18
2018-05-08T05:25:45.316Z,1018.16
2018-05-08T05:26:45.344Z,1018.16
2018-05-08T05:27:45.370Z,1018.19
2018-05-08T05:28:45.396Z,1018.15
2018-05-08T05:29:45.420Z,1018.17
2018-05-08T05:30:45.454Z,1018.15
2018-05-08T05:31:45.476Z,1018.14
2018-05-08T05:32:45.503Z,1018.16
2018-05-08T05:33:45.530Z,1018.14
2018-05-08T05:34:45.559Z,1018.11
2018-05-08T05:35:45.590Z,1018.12
2018-05-08T05:36:45.622Z,1018.11
2018-05-08T05:37:45.636Z,1018.05
2018-05-08T05:38:45.663Z,1018.11
2018-05-08T05:39:45.705Z,1018.08
2018-05-08T05:40:45.725Z,1018.10
2018-05-08T05:41:45.743Z,1018.12
2018-05-08T05:42:45.770Z,1018.12
2018-05-08T05:43:45.795Z,1018.10
2018-05-08T05:44:45.825Z,1018.10
2018-05-08T05:45:45.850Z,1018.07
2018-05-08T05:46:45.875Z,1018.09
2018-05-08T05:47:45.916Z,1018.05
2018-05-08T05:48:45.933Z,1018.05
2018-05-08T05:49:45.957Z,1018.06
2018-05-08T05:50:45.986Z,1018.05
2018-05-08T05:51:46.011Z,1018.04
2018-05-08T05:52:46.094Z,1018.03
2018-05-08T05:53:46.069Z,1018.02
2018-05-08T05:54:46.095Z,1018.02
2018-05-08T05:55:46.124Z,1017.97
2018-05-08T05:56:46.145Z,1017.95
2018-05-08T05:57:46.176Z,1017.95
2018-05-08T05:58:46.201Z,1017.97
2018-05-08T05:59:46.233Z,1017.94
2018-05-08T06:00:46.259Z,1017.95
2018-05-08T06:01:46.282Z,1017.92
2018-05-08T06:02:46.313Z,1017.94
2018-05-08T06:03:46.340Z,1017.94
2018-05-08T06:04:46.365Z,1017.95
2018-05-08T06:05:46.389Z,1017.91
2018-05-08T06:06:46.415Z,1017.95
2018-05-08T06:07:46.451Z,1017.92
2018-05-08T06:08:46.470Z,1017.91
2018-05-08T06:09:46.502Z,1017.87
2018-05-08T06:10:46.526Z,1017.91
2018-05-08T06:11:46.556Z,1017.90
2018-05-08T06:12:46.582Z,1017.93
2018-05-08T06:13:46.607Z,1017.88
2018-05-08T06:14:46.636Z,1017.88
2018-05-08T06:15:46.660Z,1017.89
2018-05-08T06:16:46.689Z,1017.90
2018-05-08T06:17:46.719Z,1017.90
2018-05-08T06:18:46.749Z,1017.92
2018-05-08T06:19:46.771Z,1017.92
2018-05-08T06:20:46.796Z,1017.90
2018-05-08T06:21:46.827Z,1017.90
2018-05-08T06:22:46.848Z,1017.90
2018-05-08T06:23:46.882Z,1017.89
2018-05-08T06:24:46.914Z,1017.88
2018-05-08T06:25:46.934Z,1017.91
2018-05-08T06:26:46.961Z,1017.91
2018-05-08T06:27:46.986Z,1017.91
2018-05-08T06:28:47.013Z,1017.90
2018-05-08T06:29:47.045Z,1017.91
2018-05-08T06:30:47.073Z,1017.88
2018-05-08T06:31:47.129Z,1017.86
2018-05-08T06:32:47.123Z,1017.87
2018-05-08T06:33:47.157Z,1017.88
2018-05-08T06:34:47.177Z,1017.89
2018-05-08T06:35:47.208Z,1017.90
2018-05-08T06:36:47.237Z,1017.87
2018-05-08T06:37:47.258Z,1017.88
2018-05-08T06:38:47.289Z,1017.87
2018-05-08T06:39:47.317Z,1017.90
2018-05-08T06:40:47.343Z,1017.88
2018-05-08T06:41:47.372Z,1017.89
2018-05-08T06:42:47.401Z,1017.88
2018-05-08T06:43:47.428Z,1017.86
2018-05-08T06:44:47.454Z,1017.88
2018-05-08T06:45:47.479Z,1017.87
2018-05-08T06:46:47.559Z,1017.84
2018-05-08T06:47:47.537Z,1017.85
2018-05-08T06:48:47.569Z,1017.83
2018-05-08T06:49:47.594Z,1017.89
2018-05-08T06:50:47.617Z,1017.86
2018-05-08T06:51:47.659Z,1017.83
2018-05-08T06:52:47.678Z,1017.81
2018-05-08T06:53:47.702Z,1017.79
2018-05-08T06:54:47.781Z,1017.84
2018-05-08T06:55:47.759Z,1017.83
2018-05-08T06:56:47.787Z,1017.78
2018-05-08T06:57:47.814Z,1017.80
2018-05-08T06:58:47.836Z,1017.79
2018-05-08T06:59:47.867Z,1017.78
2018-05-08T07:00:47.891Z,1017.78
2018-05-08T07:01:47.926Z,1017.77
2018-05-08T07:02:47.952Z,1017.76
2018-05-08T07:03:47.981Z,1017.80
2018-05-08T07:04:48.008Z,1017.79
2018-05-08T07:05:48.039Z,1017.81
2018-05-08T07:06:48.060Z,1017.76
2018-05-08T07:07:48.091Z,1017.77
2018-05-08T07:08:48.117Z,1017.81
2018-05-08T07:09:48.154Z,1017.78
2018-05-08T07:10:48.173Z,1017.76
2018-05-08T07:11:48.201Z,1017.76
2018-05-08T07:12:48.227Z,1017.78
2018-05-08T07:13:48.255Z,1017.78
2018-05-08T07:14:48.281Z,1017.75
2018-05-08T07:15:48.402Z,1017.75
2018-05-08T07:16:48.345Z,1017.72
2018-05-08T07:17:48.365Z,1017.71
2018-05-08T07:18:48.391Z,1017.72
2018-05-08T07:19:48.430Z,1017.70
2018-05-08T07:20:48.445Z,1017.66
2018-05-08T07:21:48.476Z,1017.71
2018-05-08T07:22:48.507Z,1017.68
2018-05-08T07:23:48.532Z,1017.66
2018-05-08T07:24:48.560Z,1017.68
2018-05-08T07:25:48.585Z,1017.66
2018-05-08T07:26:48.615Z,1017.63
2018-05-08T07:27:48.649Z,1017.65
2018-05-08T07:28:48.675Z,1017.60
2018-05-08T07:29:48.701Z,1017.65
2018-05-08T07:30:48.759Z,1017.64
2018-05-08T07:31:48.756Z,1017.66
2018-05-08T07:32:48.784Z,1017.59
2018-05-08T07:33:48.814Z,1017.59
2018-05-08T07:34:48.846Z,1017.59
2018-05-08T07:35:48.868Z,1017.54
2018-05-08T07:36:48.895Z,1017.56
2018-05-08T07:37:48.926Z,1017.52
2018-05-08T07:38:48.952Z,1017.56
2018-05-08T07:39:48.989Z,1017.53
2018-05-08T07:40:49.004Z,1017.51
2018-05-08T07:41:49.035Z,1017.47
2018-05-08T07:42:49.065Z,1017.49
2018-05-08T07:43:49.105Z,1017.46
2018-05-08T07:44:49.124Z,1017.47
2018-05-08T07:45:49.148Z,1017.45
2018-05-08T07:46:49.184Z,1017.44
2018-05-08T07:47:49.210Z,1017.46
2018-05-08T07:48:49.235Z,1017.43
2018-05-08T07:49:49.270Z,1017.41
2018-05-08T07:50:49.289Z,1017.43
2018-05-08T07:51:49.385Z,1017.44
2018-05-08T07:52:49.346Z,1017.43
2018-05-08T07:53:49.369Z,1017.43
2018-05-08T07:54:49.399Z,1017.45
2018-05-08T07:55:49.423Z,1017.47
2018-05-08T07:56:49.453Z,1017.47
2018-05-08T07:57:49.484Z,1017.44
2018-05-08T07:58:49.515Z,1017.45
2018-05-08T07:59:49.544Z,1017.46
2018-05-08T08:00:49.568Z,1017.49
2018-05-08T08:01:49.603Z,1017.47
2018-05-08T08:02:49.626Z,1017.47
2018-05-08T08:03:49.651Z,1017.50
2018-05-08T08:04:49.679Z,1017.47
2018-05-08T08:05:49.714Z,1017.48
2018-05-08T08:06:49.734Z,1017.42
2018-05-08T08:07:49.761Z,1017.39
2018-05-08T08:08:49.793Z,1017.44
2018-05-08T08:09:49.826Z,1017.45
2018-05-08T08:10:49.849Z,1017.42
2018-05-08T08:11:49.877Z,1017.43
2018-05-08T08:12:49.904Z,1017.41
2018-05-08T08:13:49.938Z,1017.40
2018-05-08T08:14:49.957Z,1017.39
2018-05-08T08:15:49.985Z,1017.38
2018-05-08T08:16:50.020Z,1017.40
2018-05-08T08:17:50.048Z,1017.36
2018-05-08T08:18:50.073Z,1017.39
2018-05-08T08:19:50.108Z,1017.39
2018-05-08T08:20:50.129Z,1017.39
2018-05-08T08:21:50.157Z,1017.37
2018-05-08T08:22:50.183Z,1017.40
2018-05-08T08:23:50.228Z,1017.38
2018-05-08T08:24:50.248Z,1017.35
2018-05-08T08:25:50.273Z,1017.38
2018-05-08T08:26:50.316Z,1017.32
2018-05-08T08:27:50.332Z,1017.28
2018-05-08T08:28:50.357Z,1017.31
2018-05-08T08:29:50.467Z,1017.26
2018-05-08T08:30:50.417Z,1017.22
2018-05-08T08:31:50.443Z,1017.25
2018-05-08T08:32:50.473Z,1017.26
2018-05-08T08:33:50.499Z,1017.23
2018-05-08T08:34:50.532Z,1017.17
2018-05-08T08:35:50.553Z,1017.20
2018-05-08T08:36:50.587Z,1017.22
2018-05-08T08:37:50.612Z,1017.12
2018-05-08T08:38:50.644Z,1017.20
2018-05-08T08:39:50.671Z,1017.15
2018-05-08T08:40:50.729Z,1017.17
2018-05-08T08:41:50.727Z,1017.14
2018-05-08T08:42:50.752Z,1017.20
2018-05-08T08:43:50.784Z,1017.14
2018-05-08T08:44:50.810Z,1017.18
2018-05-08T08:45:50.837Z,1017.14
2018-05-08T08:46:50.872Z,1017.13
2018-05-08T08:47:50.909Z,1017.12
2018-05-08T08:48:50.924Z,1017.13
2018-05-08T08:49:50.953Z,1017.08
2018-05-08T08:50:50.981Z,1017.09
2018-05-08T08:51:51.011Z,1017.03
2018-05-08T08:52:51.043Z,1017.03
2018-05-08T08:53:51.073Z,1017.01
2018-05-08T08:54:51.092Z,1017.00
2018-05-08T08:55:51.129Z,1017.04
2018-05-08T08:56:51.161Z,1017.00
2018-05-08T08:57:51.180Z,1017.02
2018-05-08T08:58:51.216Z,1017.02
2018-05-08T08:59:51.240Z,1016.98
2018-05-08T09:00:51.271Z,1017.02
2018-05-08T09:01:51.298Z,1017.00
2018-05-08T09:02:51.328Z,1016.99
2018-05-08T09:03:51.364Z,1016.94
2018-05-08T09:04:51.394Z,1016.96
2018-05-08T09:05:51.410Z,1016.99
2018-05-08T09:06:51.438Z,1016.90
2018-05-08T09:07:51.469Z,1016.96
2018-05-08T09:08:51.499Z,1016.94
2018-05-08T09:09:51.530Z,1016.96
2018-05-08T09:10:51.557Z,1016.93
2018-05-08T09:11:51.582Z,1016.96
2018-05-08T09:12:51.612Z,1016.90
2018-05-08T09:13:51.640Z,1016.98
2018-05-08T09:14:51.673Z,1016.97
2018-05-08T09:15:51.704Z,1016.95
2018-05-08T09:16:51.772Z,1016.96
2018-05-08T09:17:51.751Z,1016.97
2018-05-08T09:18:51.783Z,1016.94
2018-05-08T09:19:51.881Z,1016.93
2018-05-08T09:20:51.842Z,1016.92
2018-05-08T09:21:51.866Z,1016.84
2018-05-08T09:22:51.897Z,1016.87
2018-05-08T09:23:51.927Z,1016.85
2018-05-08T09:24:51.957Z,1016.79
2018-05-08T09:25:51.985Z,1016.77
2018-05-08T09:26:52.015Z,1016.77
2018-05-08T09:27:52.040Z,1016.80
2018-05-08T09:28:52.067Z,1016.76
2018-05-08T09:29:52.102Z,1016.73
2018-05-08T09:30:52.132Z,1016.74
2018-05-08T09:31:52.160Z,1016.72
2018-05-08T09:32:52.243Z,1016.70
2018-05-08T09:33:52.220Z,1016.65
2018-05-08T09:34:52.246Z,1016.78
2018-05-08T09:35:52.271Z,1016.72
2018-05-08T09:36:52.404Z,1016.71
2018-05-08T09:37:52.335Z,1016.72
2018-05-08T09:38:52.361Z,1016.67
2018-05-08T09:39:52.399Z,1016.66
2018-05-08T09:40:52.462Z,1016.61
2018-05-08T09:41:52.448Z,1016.61
2018-05-08T09:42:52.480Z,1016.60
2018-05-08T09:43:52.512Z,1016.59
2018-05-08T09:44:52.535Z,1016.65
2018-05-08T09:45:52.561Z,1016.62
2018-05-08T09:46:52.594Z,1016.62
2018-05-08T09:47:52.623Z,1016.57
2018-05-08T09:48:52.717Z,1016.59
2018-05-08T09:49:52.676Z,1016.61
2018-05-08T09:50:52.786Z,1016.61
2018-05-08T09:51:52.740Z,1016.64
2018-05-08T09:52:52.765Z,1016.54
2018-05-08T09:53:52.794Z,1016.53
2018-05-08T09:54:52.823Z,1016.50
2018-05-08T09:55:52.850Z,1016.55
2018-05-08T09:56:52.885Z,1016.58
2018-05-08T09:57:52.913Z,1016.49
2018-05-08T09:58:52.935Z,1016.52
2018-05-08T09:59:52.965Z,1016.49
2018-05-08T10:00:52.998Z,1016.39
2018-05-08T10:01:53.030Z,1016.43
2018-05-08T10:02:53.059Z,1016.46
2018-05-08T10:03:53.094Z,1016.42
2018-05-08T10:04:53.114Z,1016.34
2018-05-08T10:05:53.144Z,1016.39
2018-05-08T10:06:53.173Z,1016.33
2018-05-08T10:07:53.200Z,1016.44
2018-05-08T10:08:53.236Z,1016.30
2018-05-08T10:09:53.260Z,1016.32
2018-05-08T10:10:53.284Z,1016.30
2018-05-08T10:11:53.323Z,1016.29
2018-05-08T10:12:53.347Z,1016.34
2018-05-08T10:13:53.380Z,1016.26
2018-05-08T10:14:53.403Z,1016.24
2018-05-08T10:15:53.447Z,1016.19
2018-05-08T10:16:53.472Z,1016.24
2018-05-08T10:17:53.493Z,1016.22
2018-05-08T10:18:53.525Z,1016.15
2018-05-08T10:19:53.557Z,1016.20
2018-05-08T10:20:53.580Z,1016.16
2018-05-08T10:21:53.611Z,1016.17
2018-05-08T10:22:53.641Z,1016.10
2018-05-08T10:23:53.677Z,1016.12
2018-05-08T10:24:53.701Z,1016.18
2018-05-08T10:25:53.733Z,1016.14
2018-05-08T10:26:53.758Z,1016.15
2018-05-08T10:27:53.785Z,1016.16
2018-05-08T10:28:53.815Z,1016.12
2018-05-08T10:29:53.855Z,1016.08
2018-05-08T10:30:53.878Z,1016.12
2018-05-08T10:31:53.907Z,1016.12
2018-05-08T10:32:54.047Z,1016.08
2018-05-08T10:33:53.969Z,1016.03
2018-05-08T10:34:53.998Z,1016.05
2018-05-08T10:35:54.023Z,1016.05
2018-05-08T10:36:54.056Z,1016.01
2018-05-08T10:37:54.080Z,1015.95
2018-05-08T10:38:54.115Z,1015.96
2018-05-08T10:39:54.142Z,1015.98
2018-05-08T10:40:54.170Z,1015.90
2018-05-08T10:41:54.204Z,1015.97
2018-05-08T10:42:54.232Z,1015.96
2018-05-08T10:43:54.258Z,1015.93
2018-05-08T10:44:54.285Z,1015.94
2018-05-08T10:45:54.313Z,1015.94
2018-05-08T10:46:54.351Z,1016.01
2018-05-08T10:47:54.373Z,1015.96
2018-05-08T10:48:54.403Z,1016.04
2018-05-08T10:49:54.438Z,1016.04
2018-05-08T10:50:54.462Z,1016.00
2018-05-08T10:51:54.497Z,1016.07
2018-05-08T10:52:54.532Z,1016.02
2018-05-08T10:53:54.554Z,1016.04
2018-05-08T10:54:54.592Z,1016.08
2018-05-08T10:55:54.624Z,1016.22
2018-05-08T10:56:54.657Z,1016.32
2018-05-08T10:57:54.683Z,1016.32
2018-05-08T10:58:54.707Z,1016.37
2018-05-08T10:59:54.743Z,1016.45
2018-05-08T11:00:54.772Z,1016.43
2018-05-08T11:01:54.808Z,1016.43
2018-05-08T11:02:54.833Z,1016.44
2018-05-08T11:03:54.863Z,1016.44
2018-05-08T11:04:54.896Z,1016.39
2018-05-08T11:05:54.930Z,1016.48
2018-05-08T11:06:54.963Z,1016.55
2018-05-08T11:07:54.995Z,1016.56
2018-05-08T11:08:55.026Z,1016.49
2018-05-08T11:09:55.062Z,1016.57
2018-05-08T11:10:55.093Z,1016.48
2018-05-08T11:11:55.132Z,1016.53
2018-05-08T11:12:55.176Z,1016.56
2018-05-08T11:13:55.200Z,1016.64
2018-05-08T11:14:55.235Z,1016.67
2018-05-08T11:15:55.270Z,1016.72
2018-05-08T11:16:55.303Z,1016.72
2018-05-08T11:17:55.335Z,1016.68
2018-05-08T11:18:55.373Z,1016.74
2018-05-08T11:19:55.410Z,1016.69
2018-05-08T11:20:55.448Z,1016.57
2018-05-08T11:21:55.487Z,1016.48
2018-05-08T11:22:55.524Z,1016.57
2018-05-08T11:23:55.556Z,1016.68
2018-05-08T11:24:55.587Z,1016.70
2018-05-08T11:25:55.629Z,1016.70
2018-05-08T11:26:55.667Z,1016.69
2018-05-08T11:27:55.702Z,1016.74
2018-05-08T11:28:55.736Z,1016.76
2018-05-08T11:29:55.772Z,1016.75
2018-05-08T11:30:55.813Z,1016.74
2018-05-08T11:31:55.852Z,1016.69
2018-05-08T11:32:55.890Z,1016.77
2018-05-08T11:33:55.929Z,1016.73
2018-05-08T11:34:55.962Z,1016.66
2018-05-08T11:35:56.008Z,1016.68
2018-05-08T11:36:56.038Z,1016.56
2018-05-08T11:37:56.077Z,1016.59
2018-05-08T11:38:56.119Z,1016.69
2018-05-08T11:39:56.153Z,1016.68
2018-05-08T11:40:56.202Z,1016.69
2018-05-08T11:41:56.226Z,1016.80
2018-05-08T11:42:56.268Z,1016.84
2018-05-08T11:43:56.307Z,1016.85
2018-05-08T11:44:56.346Z,1016.88
2018-05-08T11:45:56.384Z,1016.89
2018-05-08T11:46:56.417Z,1016.94
2018-05-08T11:47:56.457Z,1016.98
2018-05-08T11:48:56.495Z,1017.03
2018-05-08T11:49:56.542Z,1017.10
2018-05-08T11:50:56.570Z,1017.13
2018-05-08T11:51:56.611Z,1017.31
2018-05-08T11:52:56.654Z,1017.50
2018-05-08T11:53:56.691Z,1017.83
2018-05-08T11:54:56.730Z,1018.17
2018-05-08T11:55:56.775Z,1018.36
2018-05-08T11:56:56.804Z,1018.96
2018-05-08T11:57:56.850Z,1020.16
2018-05-08T11:58:56.886Z,1021.25
2018-05-08T11:59:56.928Z,1022.24
2018-05-08T12:00:57.021Z,1023.12
2018-05-08T12:01:57.004Z,1024.56
2018-05-08T12:02:57.041Z,1025.73
2018-05-08T12:03:57.091Z,1027.35
2018-05-08T12:04:57.125Z,1028.75
2018-05-08T12:05:57.166Z,1029.39